Allentown, New York
Current Conditions -  °F | °C
As of 7:56 AM on Friday 24 Oct 2014 (Local Time) from KELZ Reporting Station
Clear Clear  
Wind Chill: 33°   Ceiling: Unl
Heat Index: 39°   Visibility: 10mi
Dew Point: 36°   Wind: 8mph
Humidity: 89%   Direction: 310°NW
Pressure: 30.01"   Gusts: NA
Location:  42.08°N, 78.06°W
Report Text: KELZ 241156Z AUTO 31007KT 10SM CLR 04/02 A3001 RMK AO2 SLP174 T00390022 10083 20033 50004
Loading
Personal Weather Stations






























Interactive Weather Map
Tropical Storm Tracking
New forecast layout! Learn more

10-Day Weather Forecast

Advertisements
Track Severe Weather on mobile